Time,TemperatureF,DewpointF,PressureIn,WindDirection,WindDirectionDegrees,WindSpeedMPH,WindSpeedGustMPH,Humidity,HourlyPrecipIn,Conditions,Clouds,dailyrainin,SoftwareType,DateUTC
2013-03-21 00:10:00,-999.0,-99.9,30.03,North,-999,-999.0,-999.0,-999,0.00,,,0.00,weatherlink.com 1.10,2013-03-21 05:10:00,
2013-03-21 00:25:00,-999.0,-99.9,30.01,North,-999,-999.0,-999.0,-999,0.00,,,0.00,weatherlink.com 1.10,2013-03-21 05:25:00,
2013-03-21 00:40:00,-999.0,-99.9,30.00,North,-999,-999.0,-999.0,-999,0.00,,,0.00,weatherlink.com 1.10,2013-03-21 05:40:00,
2013-03-21 00:56:00,-999.0,-99.9,30.00,North,-999,-999.0,-999.0,-999,0.00,,,0.00,weatherlink.com 1.10,2013-03-21 05:56:00,
2013-03-21 01:26:00,-999.0,-99.9,29.99,North,-999,-999.0,-999.0,-999,0.00,,,0.00,weatherlink.com 1.10,2013-03-21 06:26:00,
2013-03-21 01:56:00,-999.0,-99.9,29.98,North,-999,-999.0,-999.0,-999,0.00,,,0.00,weatherlink.com 1.10,2013-03-21 06:56:00,
2013-03-21 02:11:00,-999.0,-99.9,29.98,North,-999,-999.0,-999.0,-999,0.00,,,0.00,weatherlink.com 1.10,2013-03-21 07:11:00,
2013-03-21 02:26:00,-999.0,-99.9,29.97,North,-999,-999.0,-999.0,-999,0.00,,,0.00,weatherlink.com 1.10,2013-03-21 07:26:00,
2013-03-21 02:41:00,-999.0,-99.9,29.96,North,-999,-999.0,-999.0,-999,0.00,,,0.00,weatherlink.com 1.10,2013-03-21 07:41:00,
2013-03-21 02:56:00,-999.0,-99.9,29.96,North,-999,-999.0,-999.0,-999,0.00,,,0.00,weatherlink.com 1.10,2013-03-21 07:56:00,
2013-03-21 03:11:00,-999.0,-99.9,29.95,North,-999,-999.0,-999.0,-999,0.00,,,0.00,weatherlink.com 1.10,2013-03-21 08:11:00,
2013-03-21 03:26:00,-999.0,-99.9,29.95,North,-999,-999.0,-999.0,-999,0.00,,,0.00,weatherlink.com 1.10,2013-03-21 08:26:00,
2013-03-21 03:41:00,-999.0,-99.9,29.94,North,-999,-999.0,-999.0,-999,0.00,,,0.00,weatherlink.com 1.10,2013-03-21 08:41:00,
2013-03-21 03:56:00,-999.0,-99.9,29.93,North,-999,-999.0,-999.0,-999,0.00,,,0.00,weatherlink.com 1.10,2013-03-21 08:56:00,
2013-03-21 04:12:00,-999.0,-99.9,29.92,North,-999,-999.0,-999.0,-999,0.00,,,0.00,weatherlink.com 1.10,2013-03-21 09:12:00,
2013-03-21 04:27:00,-999.0,-99.9,29.91,North,-999,-999.0,-999.0,-999,0.00,,,0.00,weatherlink.com 1.10,2013-03-21 09:27:00,
2013-03-21 04:42:00,-999.0,-99.9,29.91,North,-999,-999.0,-999.0,-999,0.00,,,0.00,weatherlink.com 1.10,2013-03-21 09:42:00,
2013-03-21 04:57:00,-999.0,-99.9,29.91,North,-999,-999.0,-999.0,-999,0.00,,,0.00,weatherlink.com 1.10,2013-03-21 09:57:00,
2013-03-21 05:12:00,-999.0,-99.9,29.91,North,-999,-999.0,-999.0,-999,0.00,,,0.00,weatherlink.com 1.10,2013-03-21 10:12:00,
2013-03-21 05:27:00,-999.0,-99.9,29.90,North,-999,-999.0,-999.0,-999,0.00,,,0.00,weatherlink.com 1.10,2013-03-21 10:27:00,
2013-03-21 05:42:00,-999.0,-99.9,29.90,North,-999,-999.0,-999.0,-999,0.00,,,0.00,weatherlink.com 1.10,2013-03-21 10:42:00,
2013-03-21 05:57:00,-999.0,-99.9,29.89,North,-999,-999.0,-999.0,-999,0.00,,,0.00,weatherlink.com 1.10,2013-03-21 10:57:00,
2013-03-21 06:12:00,-999.0,-99.9,29.90,North,-999,-999.0,-999.0,-999,0.00,,,0.00,weatherlink.com 1.10,2013-03-21 11:12:00,
2013-03-21 06:27:00,-999.0,-99.9,29.90,North,-999,-999.0,-999.0,-999,0.00,,,0.00,weatherlink.com 1.10,2013-03-21 11:27:00,
2013-03-21 06:42:00,-999.0,-99.9,29.90,North,-999,-999.0,-999.0,-999,0.00,,,0.00,weatherlink.com 1.10,2013-03-21 11:42:00,
2013-03-21 06:57:00,-999.0,-99.9,29.90,North,-999,-999.0,-999.0,-999,0.00,,,0.00,weatherlink.com 1.10,2013-03-21 11:57:00,
2013-03-21 07:12:00,-999.0,-99.9,29.90,North,-999,-999.0,-999.0,-999,0.00,,,0.00,weatherlink.com 1.10,2013-03-21 12:12:00,
2013-03-21 07:43:00,-999.0,-99.9,29.91,North,-999,-999.0,-999.0,-999,0.00,,,0.00,weatherlink.com 1.10,2013-03-21 12:43:00,
2013-03-21 07:58:00,-999.0,-99.9,29.91,North,-999,-999.0,-999.0,-999,0.00,,,0.00,weatherlink.com 1.10,2013-03-21 12:58:00,
2013-03-21 08:13:00,-999.0,-99.9,29.91,North,-999,-999.0,-999.0,-999,0.00,,,0.00,weatherlink.com 1.10,2013-03-21 13:13:00,
2013-03-21 08:28:00,66.1,62.0,29.91,SE,145,5.0,7.0,85,0.00,,,0.00,weatherlink.com 1.10,2013-03-21 13:28:00,
2013-03-21 08:43:00,66.4,62.0,29.91,SE,125,4.0,7.0,85,0.00,,,0.00,weatherlink.com 1.10,2013-03-21 13:43:00,
2013-03-21 08:59:00,67.3,62.0,29.90,SE,142,6.0,11.0,83,0.00,,,0.00,weatherlink.com 1.10,2013-03-21 13:59:00,
2013-03-21 09:13:00,67.9,62.0,29.90,SE,141,6.0,10.0,81,0.00,,,0.00,weatherlink.com 1.10,2013-03-21 14:13:00,
2013-03-21 09:28:00,68.4,62.0,29.90,SSE,148,5.0,11.0,80,0.00,,,0.00,weatherlink.com 1.10,2013-03-21 14:28:00,
2013-03-21 09:43:00,68.5,62.0,29.89,SE,128,9.0,13.0,80,0.00,,,0.00,weatherlink.com 1.10,2013-03-21 14:43:00,
2013-03-21 09:58:00,69.0,63.0,29.89,ESE,116,6.0,13.0,80,0.00,,,0.00,weatherlink.com 1.10,2013-03-21 14:58:00,
2013-03-21 10:13:00,68.8,62.0,29.89,SE,130,11.0,14.0,80,0.00,,,0.00,weatherlink.com 1.10,2013-03-21 15:13:00,
2013-03-21 10:28:00,69.0,63.0,29.89,SSE,167,7.0,15.0,80,0.00,,,0.00,weatherlink.com 1.10,2013-03-21 15:28:00,
2013-03-21 10:43:00,69.5,63.0,29.88,SSE,156,9.0,16.0,79,0.00,,,0.00,weatherlink.com 1.10,2013-03-21 15:43:00,
2013-03-21 10:58:00,70.1,63.0,29.88,SE,135,11.0,14.0,78,0.00,,,0.00,weatherlink.com 1.10,2013-03-21 15:58:00,
2013-03-21 11:13:00,70.6,63.0,29.87,SE,140,7.0,16.0,77,0.00,,,0.00,weatherlink.com 1.10,2013-03-21 16:13:00,
2013-03-21 11:28:00,70.5,63.0,29.86,SE,131,9.0,16.0,77,0.00,,,0.00,weatherlink.com 1.10,2013-03-21 16:28:00,
2013-03-21 11:43:00,69.3,63.0,29.86,SSE,147,10.0,18.0,80,0.00,,,0.00,weatherlink.com 1.10,2013-03-21 16:43:00,
2013-03-21 11:58:00,69.3,63.0,29.86,SE,134,13.0,19.0,80,0.00,,,0.00,weatherlink.com 1.10,2013-03-21 16:58:00,
2013-03-21 12:13:00,70.4,64.0,29.85,SSE,148,7.0,15.0,79,0.00,,,0.00,weatherlink.com 1.10,2013-03-21 17:13:00,
2013-03-21 12:29:00,70.2,63.0,29.85,South,170,12.0,16.0,79,0.00,,,0.00,weatherlink.com 1.10,2013-03-21 17:29:00,
2013-03-21 12:44:00,70.0,63.0,29.84,SSE,154,10.0,14.0,79,0.00,,,0.00,weatherlink.com 1.10,2013-03-21 17:44:00,
2013-03-21 12:58:00,69.7,63.0,29.83,SSE,165,11.0,18.0,79,0.00,,,0.00,weatherlink.com 1.10,2013-03-21 17:58:00,
2013-03-21 13:13:00,69.6,63.0,29.82,South,175,14.0,15.0,80,0.00,,,0.00,weatherlink.com 1.10,2013-03-21 18:13:00,
2013-03-21 13:28:00,70.0,63.0,29.82,SE,135,13.0,14.0,79,0.00,,,0.00,weatherlink.com 1.10,2013-03-21 18:28:00,
2013-03-21 13:44:00,69.6,63.0,29.80,SSE,160,10.0,16.0,80,0.00,,,0.00,weatherlink.com 1.10,2013-03-21 18:44:00,
2013-03-21 13:58:00,69.7,63.0,29.79,SE,140,8.0,16.0,80,0.00,,,0.00,weatherlink.com 1.10,2013-03-21 18:58:00,
2013-03-21 14:13:00,69.7,64.0,29.78,SSE,147,6.0,13.0,81,0.00,,,0.00,weatherlink.com 1.10,2013-03-21 19:13:00,
2013-03-21 14:29:00,69.3,64.0,29.77,ESE,123,10.0,14.0,82,0.00,,,0.00,weatherlink.com 1.10,2013-03-21 19:29:00,
2013-03-21 14:44:00,69.3,64.0,29.76,SSE,150,9.0,16.0,83,0.00,,,0.00,weatherlink.com 1.10,2013-03-21 19:44:00,
2013-03-21 14:59:00,69.1,64.0,29.75,SE,141,10.0,15.0,83,0.00,,,0.00,weatherlink.com 1.10,2013-03-21 19:59:00,
2013-03-21 15:14:00,69.7,64.0,29.74,SSE,148,9.0,18.0,83,0.00,,,0.00,weatherlink.com 1.10,2013-03-21 20:14:00,
2013-03-21 15:29:00,69.5,64.0,29.73,SE,130,8.0,20.0,82,0.00,,,0.00,weatherlink.com 1.10,2013-03-21 20:29:00,
2013-03-21 15:44:00,69.8,64.0,29.72,SE,127,8.0,15.0,82,0.00,,,0.00,weatherlink.com 1.10,2013-03-21 20:44:00,
2013-03-21 15:59:00,69.7,64.0,29.71,SSE,149,11.0,18.0,83,0.00,,,0.00,weatherlink.com 1.10,2013-03-21 20:59:00,
2013-03-21 16:14:00,69.6,65.0,29.70,SSE,153,11.0,16.0,84,0.00,,,0.00,weatherlink.com 1.10,2013-03-21 21:14:00,
2013-03-21 16:29:00,69.5,65.0,29.69,SE,125,12.0,18.0,84,0.00,,,0.00,weatherlink.com 1.10,2013-03-21 21:29:00,
2013-03-21 16:44:00,69.5,65.0,29.70,SSE,157,10.0,15.0,84,0.00,,,0.00,weatherlink.com 1.10,2013-03-21 21:44:00,
2013-03-21 16:59:00,69.4,65.0,29.69,SSE,155,12.0,19.0,85,0.00,,,0.00,weatherlink.com 1.10,2013-03-21 21:59:00,
2013-03-21 17:14:00,69.2,65.0,29.68,SSE,151,9.0,16.0,85,0.00,,,0.00,weatherlink.com 1.10,2013-03-21 22:14:00,
2013-03-21 17:29:00,69.3,65.0,29.67,SSE,148,13.0,18.0,85,0.00,,,0.00,weatherlink.com 1.10,2013-03-21 22:29:00,
2013-03-21 17:44:00,69.1,65.0,29.67,SSE,158,11.0,16.0,85,0.00,,,0.00,weatherlink.com 1.10,2013-03-21 22:44:00,
2013-03-21 17:59:00,68.8,65.0,29.67,SE,142,6.0,18.0,86,0.00,,,0.00,weatherlink.com 1.10,2013-03-21 22:59:00,
2013-03-21 18:14:00,68.7,64.0,29.67,SE,142,15.0,19.0,86,0.00,,,0.00,weatherlink.com 1.10,2013-03-21 23:14:00,
2013-03-21 18:29:00,68.7,64.0,29.67,SE,130,11.0,16.0,86,0.00,,,0.00,weatherlink.com 1.10,2013-03-21 23:29:00,
2013-03-21 18:44:00,68.6,64.0,29.67,SSE,155,11.0,18.0,86,0.00,,,0.00,weatherlink.com 1.10,2013-03-21 23:44:00,
2013-03-21 18:59:00,68.7,64.0,29.67,SE,141,13.0,18.0,86,0.00,,,0.00,weatherlink.com 1.10,2013-03-21 23:59:00,
2013-03-21 19:14:00,68.6,64.0,29.66,SE,143,5.0,16.0,86,0.00,,,0.00,weatherlink.com 1.10,2013-03-22 00:14:00,
2013-03-21 19:29:00,-999.0,-99.9,29.66,North,-999,-999.0,-999.0,-999,0.00,,,0.00,weatherlink.com 1.10,2013-03-22 00:29:00,
2013-03-21 19:44:00,-999.0,-99.9,29.66,North,-999,-999.0,-999.0,-999,0.00,,,0.00,weatherlink.com 1.10,2013-03-22 00:44:00,
2013-03-21 19:59:00,-999.0,-99.9,29.66,North,-999,-999.0,-999.0,-999,0.00,,,0.00,weatherlink.com 1.10,2013-03-22 00:59:00,
2013-03-21 20:14:00,-999.0,-99.9,29.67,North,-999,-999.0,-999.0,-999,0.00,,,0.00,weatherlink.com 1.10,2013-03-22 01:14:00,
2013-03-21 20:29:00,-999.0,-99.9,29.67,North,-999,-999.0,-999.0,-999,0.00,,,0.00,weatherlink.com 1.10,2013-03-22 01:29:00,
2013-03-21 20:44:00,-999.0,-99.9,29.67,North,-999,-999.0,-999.0,-999,0.00,,,0.00,weatherlink.com 1.10,2013-03-22 01:44:00,
2013-03-21 20:59:00,-999.0,-99.9,29.68,North,-999,-999.0,-999.0,-999,0.00,,,0.00,weatherlink.com 1.10,2013-03-22 01:59:00,
2013-03-21 21:15:00,-999.0,-99.9,29.68,North,-999,-999.0,-999.0,-999,0.00,,,0.00,weatherlink.com 1.10,2013-03-22 02:15:00,
2013-03-21 21:30:00,-999.0,-99.9,29.68,North,-999,-999.0,-999.0,-999,0.00,,,0.00,weatherlink.com 1.10,2013-03-22 02:30:00,
2013-03-21 21:45:00,-999.0,-99.9,29.69,North,-999,-999.0,-999.0,-999,0.00,,,0.00,weatherlink.com 1.10,2013-03-22 02:45:00,
2013-03-21 22:00:00,-999.0,-99.9,29.69,North,-999,-999.0,-999.0,-999,0.00,,,0.00,weatherlink.com 1.10,2013-03-22 03:00:00,
2013-03-21 22:15:00,-999.0,-99.9,29.70,North,-999,-999.0,-999.0,-999,0.00,,,0.00,weatherlink.com 1.10,2013-03-22 03:15:00,
2013-03-21 22:30:00,-999.0,-99.9,29.70,North,-999,-999.0,-999.0,-999,0.00,,,0.00,weatherlink.com 1.10,2013-03-22 03:30:00,
2013-03-21 22:45:00,-999.0,-99.9,29.70,North,-999,-999.0,-999.0,-999,0.00,,,0.00,weatherlink.com 1.10,2013-03-22 03:45:00,
2013-03-21 23:15:00,-999.0,-99.9,29.70,North,-999,-999.0,-999.0,-999,0.00,,,0.00,weatherlink.com 1.10,2013-03-22 04:15:00,
2013-03-21 23:30:00,-999.0,-99.9,29.70,North,-999,-999.0,-999.0,-999,0.00,,,0.00,weatherlink.com 1.10,2013-03-22 04:30:00,
2013-03-21 23:45:00,-999.0,-99.9,29.68,North,-999,-999.0,-999.0,-999,0.00,,,0.00,weatherlink.com 1.10,2013-03-22 04:45:00,